Time;durP1;ratioP1;P1;durP2;ratioP2;P2;SDS_P1;SDS_P2;PMS_P1;PMS_P2;Temp;Humidity;BMP_temperature;BMP_pressure;BME280_temperature;BME280_humidity;BME280_pressure;Samples;Min_cycle;Max_cycle;Signal;HPM_P1;HPM_P2
2024/02/27 00:01:44;;;;;;;13.33;9.37;;;5.90;99.90;;;;;;5114214;28;20267;-80
2024/02/27 00:04:10;;;;;;;13.10;9.00;;;5.80;99.90;;;;;;5114643;28;20178;-80
2024/02/27 00:06:37;;;;;;;11.43;8.77;;;5.90;99.90;;;;;;5105490;28;20204;-80
2024/02/27 00:09:02;;;;;;;12.13;9.07;;;5.80;99.90;;;;;;5095477;28;20211;-79
2024/02/27 00:11:29;;;;;;;12.47;8.80;;;5.80;99.90;;;;;;5093637;28;20199;-79
2024/02/27 00:13:55;;;;;;;13.47;9.57;;;5.80;99.90;;;;;;5095485;28;20175;-80
2024/02/27 00:16:21;;;;;;;11.87;8.97;;;5.80;99.90;;;;;;5095514;28;20167;-80
2024/02/27 00:18:48;;;;;;;12.33;10.07;;;5.80;99.90;;;;;;5095513;28;20170;-79
2024/02/27 00:21:14;;;;;;;14.50;10.37;;;5.80;99.90;;;;;;5094141;28;20599;-79
2024/02/27 00:23:40;;;;;;;13.10;9.90;;;5.70;99.90;;;;;;5103670;28;20203;-80
2024/02/27 00:26:06;;;;;;;13.27;9.57;;;5.80;99.90;;;;;;5116385;28;20532;-79
2024/02/27 00:28:32;;;;;;;14.27;8.87;;;5.80;99.90;;;;;;5114736;28;20171;-80
2024/02/27 00:30:57;;;;;;;13.57;9.40;;;5.80;99.90;;;;;;5114188;28;20261;-80
2024/02/27 00:33:23;;;;;;;12.17;8.40;;;5.80;99.90;;;;;;5115515;28;20183;-80
2024/02/27 00:35:49;;;;;;;11.53;8.90;;;5.70;99.90;;;;;;5115912;27;20254;-81
2024/02/27 00:38:15;;;;;;;12.50;9.07;;;5.70;99.90;;;;;;5113920;28;20797;-80
2024/02/27 00:40:40;;;;;;;13.13;9.47;;;5.70;99.90;;;;;;5113627;28;20540;-79
2024/02/27 00:43:06;;;;;;;13.13;10.00;;;5.70;99.90;;;;;;5113459;28;20234;-83
2024/02/27 00:45:31;;;;;;;14.73;9.57;;;5.80;99.90;;;;;;5115220;28;20643;-80
2024/02/27 00:47:57;;;;;;;12.87;8.73;;;5.70;99.90;;;;;;5115282;28;20253;-79
2024/02/27 00:50:23;;;;;;;12.27;8.40;;;5.70;99.90;;;;;;5114018;28;20531;-80
2024/02/27 00:52:49;;;;;;;13.70;9.40;;;5.70;99.90;;;;;;5113739;28;20198;-80
2024/02/27 00:55:16;;;;;;;12.27;9.07;;;5.60;99.90;;;;;;5113905;28;20631;-80
2024/02/27 00:57:41;;;;;;;12.93;10.27;;;5.60;99.90;;;;;;5108049;28;20241;-80
2024/02/27 01:00:08;;;;;;;13.50;8.80;;;5.60;99.90;;;;;;5092445;28;20632;-82
2024/02/27 01:02:41;;;;;;;13.90;10.43;;;5.60;99.90;;;;;;5094469;28;20338;-79
2024/02/27 01:05:08;;;;;;;12.30;9.73;;;5.60;99.90;;;;;;5093133;28;20217;-79
2024/02/27 01:07:33;;;;;;;12.67;9.40;;;5.60;99.90;;;;;;5091475;28;20178;-80
2024/02/27 01:10:02;;;;;;;13.20;9.67;;;5.60;99.90;;;;;;5094457;28;20171;-78
2024/02/27 01:12:27;;;;;;;13.37;9.73;;;5.60;99.90;;;;;;5092689;28;20225;-79
2024/02/27 01:14:53;;;;;;;14.87;11.00;;;5.50;99.90;;;;;;5094034;28;20171;-78
2024/02/27 01:17:19;;;;;;;15.40;11.47;;;5.70;99.90;;;;;;5093071;28;20757;-79
2024/02/27 01:19:45;;;;;;;14.20;9.80;;;5.50;99.90;;;;;;5094476;28;20164;-80
2024/02/27 01:22:11;;;;;;;13.40;9.70;;;5.50;99.90;;;;;;5093211;28;20203;-81
2024/02/27 01:24:39;;;;;;;14.67;10.00;;;5.50;99.90;;;;;;5094615;28;20260;-80
2024/02/27 01:27:05;;;;;;;12.43;10.40;;;5.50;99.90;;;;;;5092741;28;20202;-80
2024/02/27 01:29:31;;;;;;;14.50;11.07;;;5.50;99.90;;;;;;5092996;28;20175;-79
2024/02/27 01:31:57;;;;;;;13.30;11.07;;;5.50;99.90;;;;;;5092908;28;20593;-79
2024/02/27 01:34:24;;;;;;;13.10;9.83;;;5.50;99.90;;;;;;5093524;28;20164;-79
2024/02/27 01:36:50;;;;;;;14.13;10.33;;;5.50;99.90;;;;;;5091957;28;20303;-79
2024/02/27 01:39:16;;;;;;;14.23;10.70;;;5.40;99.90;;;;;;5094163;28;20243;-79
2024/02/27 01:41:48;;;;;;;13.50;10.23;;;5.50;99.90;;;;;;5093198;28;20241;-79
2024/02/27 01:44:14;;;;;;;13.80;10.23;;;5.40;99.90;;;;;;5093595;28;20172;-79
2024/02/27 01:46:40;;;;;;;16.30;12.10;;;5.40;99.90;;;;;;5091722;28;20194;-80
2024/02/27 01:49:08;;;;;;;14.90;10.33;;;5.40;99.90;;;;;;5093762;28;20172;-80
2024/02/27 01:51:34;;;;;;;16.27;12.03;;;5.40;99.90;;;;;;5093920;28;20160;-83
2024/02/27 01:54:00;;;;;;;16.67;11.47;;;5.40;99.90;;;;;;5093510;28;20561;-79
2024/02/27 01:56:27;;;;;;;16.87;11.47;;;5.40;99.90;;;;;;5093742;28;20254;-81
2024/02/27 01:58:54;;;;;;;15.03;11.13;;;5.40;99.90;;;;;;5092622;28;20222;-82
2024/02/27 02:01:20;;;;;;;14.60;11.17;;;5.40;99.90;;;;;;5091037;28;20562;-83
2024/02/27 02:03:47;;;;;;;16.70;11.90;;;5.40;99.90;;;;;;5092471;28;20203;-84
2024/02/27 02:06:13;;;;;;;15.17;10.50;;;5.40;99.90;;;;;;5093191;28;20206;-81
2024/02/27 02:08:39;;;;;;;15.90;11.67;;;5.40;99.90;;;;;;5091780;28;20207;-78
2024/02/27 02:11:07;;;;;;;15.83;11.70;;;5.40;99.90;;;;;;5093152;28;20526;-80
2024/02/27 02:13:33;;;;;;;19.90;12.07;;;5.40;99.90;;;;;;5092240;28;20175;-80
2024/02/27 02:16:00;;;;;;;15.40;11.40;;;5.40;99.90;;;;;;5092027;28;20178;-82
2024/02/27 02:18:25;;;;;;;17.07;11.80;;;5.60;99.90;;;;;;5093623;28;20577;-81
2024/02/27 02:20:51;;;;;;;16.20;12.63;;;5.50;99.90;;;;;;5091682;28;20164;-80
2024/02/27 02:23:16;;;;;;;16.93;12.67;;;5.30;99.90;;;;;;5090917;28;20199;-79
2024/02/27 02:25:46;;;;;;;16.63;11.90;;;5.30;99.90;;;;;;5093336;28;20493;-79
2024/02/27 02:28:14;;;;;;;15.30;11.83;;;5.30;99.90;;;;;;5090970;28;20185;-79
2024/02/27 02:30:40;;;;;;;16.87;12.13;;;5.40;99.90;;;;;;5092824;28;20663;-79
2024/02/27 02:33:06;;;;;;;17.50;12.77;;;5.30;99.90;;;;;;5093291;28;20259;-79
2024/02/27 02:35:32;;;;;;;15.83;11.47;;;5.40;99.90;;;;;;5093274;28;20624;-79
2024/02/27 02:37:58;;;;;;;16.97;12.83;;;5.40;99.90;;;;;;5090503;28;20180;-79
2024/02/27 02:40:25;;;;;;;15.90;12.17;;;5.30;99.90;;;;;;5092829;28;20167;-80
2024/02/27 02:42:51;;;;;;;16.40;12.43;;;5.30;99.90;;;;;;5092754;28;20571;-81
2024/02/27 02:45:17;;;;;;;16.83;12.93;;;5.30;99.90;;;;;;5091635;28;20610;-79
2024/02/27 02:47:42;;;;;;;17.30;13.27;;;5.30;99.90;;;;;;5092594;28;20177;-81
2024/02/27 02:50:09;;;;;;;16.17;13.23;;;5.30;99.90;;;;;;5093091;28;20176;-84
2024/02/27 02:52:35;;;;;;;16.07;12.10;;;5.30;99.90;;;;;;5091212;28;20217;-80
2024/02/27 02:55:05;;;;;;;17.10;12.57;;;5.30;99.90;;;;;;5091865;28;20172;-80
2024/02/27 02:57:32;;;;;;;19.37;12.60;;;5.30;99.90;;;;;;5097722;28;20308;-80
2024/02/27 02:59:58;;;;;;;17.20;12.40;;;5.20;99.90;;;;;;5113113;28;20273;-80
2024/02/27 03:02:23;;;;;;;17.70;13.03;;;5.30;99.90;;;;;;5111297;28;20301;-80
2024/02/27 03:04:49;;;;;;;17.90;12.77;;;5.30;99.90;;;;;;5093654;28;20228;-80
2024/02/27 03:07:15;;;;;;;18.47;13.87;;;5.30;99.90;;;;;;5090444;28;20289;-80
2024/02/27 03:09:41;;;;;;;18.83;13.80;;;5.30;99.90;;;;;;5089758;28;20554;-80
2024/02/27 03:12:07;;;;;;;19.80;11.90;;;5.30;99.90;;;;;;5090435;28;20228;-79
2024/02/27 03:14:32;;;;;;;21.20;13.20;;;5.20;99.90;;;;;;5091075;28;20178;-78
2024/02/27 03:16:58;;;;;;;17.03;12.57;;;5.20;99.90;;;;;;5091563;28;20172;-80
2024/02/27 03:19:26;;;;;;;16.63;12.43;;;5.20;99.90;;;;;;5090446;28;20206;-81
2024/02/27 03:21:55;;;;;;;17.33;13.07;;;5.20;99.90;;;;;;5092144;28;20188;-78
2024/02/27 03:24:21;;;;;;;16.70;12.83;;;5.20;99.90;;;;;;5091773;28;20168;-79
2024/02/27 03:26:47;;;;;;;16.97;12.40;;;5.10;99.90;;;;;;5091303;28;20172;-83
2024/02/27 03:29:13;;;;;;;16.43;13.00;;;5.10;99.90;;;;;;5090102;28;20583;-80
2024/02/27 03:31:39;;;;;;;19.10;13.70;;;5.10;99.90;;;;;;5092350;28;20251;-80
2024/02/27 03:34:05;;;;;;;18.73;12.37;;;5.00;99.90;;;;;;5091713;28;20677;-79
2024/02/27 03:36:31;;;;;;;18.23;13.30;;;5.00;99.90;;;;;;5090668;28;20168;-80
2024/02/27 03:38:56;;;;;;;17.83;13.13;;;5.00;99.90;;;;;;5091579;28;20253;-78
2024/02/27 03:41:22;;;;;;;15.70;11.57;;;5.00;99.90;;;;;;5092079;28;20168;-80
2024/02/27 03:43:47;;;;;;;20.67;14.90;;;5.00;99.90;;;;;;5091355;28;20207;-80
2024/02/27 03:46:13;;;;;;;17.77;13.20;;;5.20;99.90;;;;;;5091750;28;20168;-79
2024/02/27 03:48:39;;;;;;;18.77;14.00;;;5.00;99.90;;;;;;5090891;28;20192;-79
2024/02/27 03:51:04;;;;;;;17.73;12.97;;;5.00;99.90;;;;;;5090687;28;20658;-79
2024/02/27 03:53:33;;;;;;;17.93;13.20;;;5.00;99.90;;;;;;5090900;28;20199;-80
2024/02/27 03:55:59;;;;;;;18.47;13.97;;;5.10;99.90;;;;;;5090337;28;20538;-80
2024/02/27 03:58:25;;;;;;;19.17;14.13;;;5.10;99.90;;;;;;5104811;28;20167;-79
2024/02/27 04:00:51;;;;;;;17.00;12.43;;;5.20;99.90;;;;;;5110940;28;20182;-78
2024/02/27 04:03:17;;;;;;;17.87;13.57;;;5.20;99.90;;;;;;5111335;28;20211;-82
2024/02/27 04:05:42;;;;;;;18.50;12.60;;;5.10;99.90;;;;;;5111796;28;20194;-79
2024/02/27 04:08:08;;;;;;;18.60;12.83;;;5.10;99.90;;;;;;5112136;28;20539;-80
2024/02/27 04:10:37;;;;;;;19.10;14.33;;;5.10;99.90;;;;;;5110815;28;20193;-80
2024/02/27 04:13:04;;;;;;;17.67;12.80;;;5.10;99.90;;;;;;5112262;28;20631;-79
2024/02/27 04:15:30;;;;;;;20.17;13.73;;;5.10;99.90;;;;;;5111482;28;20171;-79
2024/02/27 04:17:57;;;;;;;17.60;13.67;;;5.10;99.90;;;;;;5114400;28;20228;-79
2024/02/27 04:20:23;;;;;;;18.63;14.00;;;5.10;99.90;;;;;;5114025;28;20171;-80
2024/02/27 04:22:49;;;;;;;18.97;13.87;;;5.10;99.90;;;;;;5114735;28;20199;-79
2024/02/27 04:25:15;;;;;;;19.53;12.83;;;5.20;99.90;;;;;;5115247;28;20167;-79
2024/02/27 04:27:41;;;;;;;19.07;12.47;;;5.20;99.90;;;;;;5114599;28;20171;-79
2024/02/27 04:30:07;;;;;;;20.63;14.27;;;5.10;99.90;;;;;;5115526;28;20615;-79
2024/02/27 04:32:34;;;;;;;20.53;14.53;;;5.10;99.90;;;;;;5115451;28;20178;-78
2024/02/27 04:35:00;;;;;;;17.83;12.83;;;5.10;99.90;;;;;;5113326;28;20171;-79
2024/02/27 04:37:26;;;;;;;20.23;14.60;;;5.10;99.90;;;;;;5115642;28;20266;-79
2024/02/27 04:39:52;;;;;;;16.27;12.83;;;5.10;99.90;;;;;;5114668;28;20598;-79
2024/02/27 04:42:18;;;;;;;19.97;13.50;;;5.10;99.90;;;;;;5114811;28;20615;-79
2024/02/27 04:44:43;;;;;;;18.00;12.73;;;5.10;99.90;;;;;;5114154;28;20627;-78
2024/02/27 04:47:10;;;;;;;16.30;12.63;;;5.10;99.90;;;;;;5114369;28;20175;-80
2024/02/27 04:49:36;;;;;;;16.73;12.00;;;5.10;99.90;;;;;;5113833;28;20635;-80
2024/02/27 04:52:02;;;;;;;18.90;13.33;;;5.10;99.90;;;;;;5115367;28;20163;-79
2024/02/27 04:54:27;;;;;;;20.97;13.70;;;5.10;99.90;;;;;;5115370;28;20193;-79
2024/02/27 04:56:53;;;;;;;17.47;12.77;;;5.10;99.90;;;;;;5114841;28;20170;-78
2024/02/27 04:59:19;;;;;;;17.47;12.50;;;5.10;99.90;;;;;;5091193;28;20359;-80
2024/02/27 05:01:48;;;;;;;16.67;12.53;;;5.10;99.90;;;;;;5094490;28;20179;-81
2024/02/27 05:04:14;;;;;;;16.43;11.97;;;5.10;99.90;;;;;;5094125;28;20605;-79
2024/02/27 05:06:40;;;;;;;17.43;13.10;;;5.10;99.90;;;;;;5094794;28;20248;-79
2024/02/27 05:09:06;;;;;;;18.00;13.50;;;5.30;99.90;;;;;;5093161;28;20192;-79
2024/02/27 05:11:32;;;;;;;18.33;12.47;;;5.10;99.90;;;;;;5094113;28;20257;-79
2024/02/27 05:13:57;;;;;;;16.53;12.73;;;5.10;99.90;;;;;;5094644;28;20620;-81
2024/02/27 05:16:23;;;;;;;16.87;12.67;;;5.10;99.90;;;;;;5094172;28;20648;-80
2024/02/27 05:18:50;;;;;;;16.90;12.03;;;5.10;99.90;;;;;;5094405;28;20166;-80
2024/02/27 05:21:21;;;;;;;16.03;12.43;;;5.10;99.90;;;;;;5095088;28;20168;-80
2024/02/27 05:23:47;;;;;;;17.47;12.03;;;5.20;99.90;;;;;;5094238;28;20222;-78
2024/02/27 05:26:14;;;;;;;15.17;11.23;;;5.20;99.90;;;;;;5095334;28;20159;-79
2024/02/27 05:28:40;;;;;;;16.27;12.57;;;5.20;99.90;;;;;;5092981;28;20175;-79
2024/02/27 05:31:26;;;;;;;18.20;14.00;;;5.20;99.90;;;;;;5092984;28;20168;-79
2024/02/27 05:33:56;;;;;;;16.83;11.93;;;5.20;99.90;;;;;;5093444;28;20926;-79
2024/02/27 05:36:23;;;;;;;15.37;12.20;;;5.30;99.90;;;;;;5092866;28;20202;-79
2024/02/27 05:38:56;;;;;;;18.23;11.97;;;5.10;99.90;;;;;;5093105;28;20172;-78
2024/02/27 05:41:22;;;;;;;15.43;11.40;;;5.10;99.90;;;;;;5092338;28;20211;-80
2024/02/27 05:43:48;;;;;;;18.40;12.93;;;5.10;99.90;;;;;;5093645;28;20211;-79
2024/02/27 05:46:14;;;;;;;15.73;12.20;;;5.10;99.90;;;;;;5093356;28;20213;-79
2024/02/27 05:48:41;;;;;;;15.33;11.57;;;5.00;99.90;;;;;;5092360;28;20566;-79
2024/02/27 05:51:11;;;;;;;16.57;11.57;;;5.00;99.90;;;;;;5093517;28;20168;-79
2024/02/27 05:53:37;;;;;;;18.60;11.67;;;5.00;99.90;;;;;;5093427;28;20168;-80
2024/02/27 05:56:03;;;;;;;14.23;9.80;;;5.00;99.90;;;;;;5091973;28;20221;-79
2024/02/27 05:58:29;;;;;;;17.67;12.37;;;5.00;99.90;;;;;;5105564;28;20198;-79
2024/02/27 06:00:56;;;;;;;17.33;11.53;;;5.00;99.90;;;;;;5110963;28;20279;-78
2024/02/27 06:03:22;;;;;;;15.70;11.97;;;5.00;99.90;;;;;;5096591;28;20313;-80
2024/02/27 06:05:49;;;;;;;13.90;10.47;;;5.00;99.90;;;;;;5090833;28;20214;-80
2024/02/27 06:08:15;;;;;;;18.80;12.73;;;4.90;99.90;;;;;;5091399;28;20195;-83
2024/02/27 06:10:41;;;;;;;15.33;11.40;;;4.90;99.90;;;;;;5092912;28;20163;-82
2024/02/27 06:13:07;;;;;;;13.73;10.17;;;4.90;99.90;;;;;;5092881;28;20262;-80
2024/02/27 06:15:33;;;;;;;18.57;11.93;;;5.00;99.90;;;;;;5092914;28;20178;-79
2024/02/27 06:17:59;;;;;;;16.60;12.00;;;4.90;99.90;;;;;;5091964;28;20330;-81
2024/02/27 06:23:08;;;;;;;18.97;12.13;;;4.90;99.90;;;;;;5091882;28;20307;-80
2024/02/27 06:25:34;;;;;;;16.67;10.87;;;4.90;99.90;;;;;;5093244;28;20195;-79
2024/02/27 06:28:00;;;;;;;17.27;13.03;;;4.80;99.90;;;;;;5090817;28;20175;-81
2024/02/27 06:30:25;;;;;;;19.10;12.77;;;4.80;99.90;;;;;;5091920;28;20172;-80
2024/02/27 06:32:52;;;;;;;14.20;11.00;;;4.90;99.90;;;;;;5093046;28;20655;-79
2024/02/27 06:35:17;;;;;;;18.07;12.50;;;4.80;99.90;;;;;;5091433;28;20172;-79
2024/02/27 06:37:43;;;;;;;17.33;11.77;;;4.80;99.90;;;;;;5092836;28;20175;-81
2024/02/27 06:40:09;;;;;;;15.20;12.30;;;5.00;99.90;;;;;;5084240;28;20182;-86
2024/02/27 06:42:36;;;;;;;17.30;13.13;;;4.80;99.90;;;;;;5092703;28;20750;-80
2024/02/27 06:45:06;;;;;;;16.90;13.40;;;4.80;99.90;;;;;;5090898;28;20160;-79
2024/02/27 06:47:32;;;;;;;15.13;11.80;;;4.80;99.90;;;;;;5090944;28;20164;-80
2024/02/27 06:49:58;;;;;;;16.93;12.23;;;4.80;99.90;;;;;;5090992;28;20646;-81
2024/02/27 06:52:27;;;;;;;16.87;11.67;;;4.80;99.90;;;;;;5089920;28;20266;-81
2024/02/27 06:54:53;;;;;;;17.27;12.40;;;4.70;99.90;;;;;;5091506;28;20164;-81
2024/02/27 06:57:19;;;;;;;16.23;12.07;;;4.80;99.90;;;;;;5093712;28;20526;-83
2024/02/27 06:59:44;;;;;;;14.73;10.37;;;4.80;99.90;;;;;;5111227;28;20273;-80
2024/02/27 07:02:11;;;;;;;19.83;12.53;;;4.90;99.90;;;;;;5111273;28;20203;-81
2024/02/27 07:04:37;;;;;;;17.57;12.07;;;4.70;99.90;;;;;;5112921;28;20176;-79
2024/02/27 07:07:04;;;;;;;16.87;11.67;;;4.80;99.90;;;;;;5092383;28;20217;-82
2024/02/27 07:09:30;;;;;;;18.33;12.47;;;4.70;99.90;;;;;;5090300;28;20383;-84
2024/02/27 07:11:59;;;;;;;17.60;12.07;;;4.70;99.90;;;;;;5090582;28;20627;-81
2024/02/27 07:14:27;;;;;;;17.37;12.80;;;4.80;99.90;;;;;;5091699;28;20168;-81
2024/02/27 07:16:56;;;;;;;17.47;12.33;;;4.80;99.90;;;;;;5092335;28;20183;-82
2024/02/27 07:19:22;;;;;;;18.43;12.80;;;4.70;99.90;;;;;;5105409;28;20167;-81
2024/02/27 07:21:48;;;;;;;21.40;13.90;;;4.70;99.90;;;;;;5089519;28;20167;-81
2024/02/27 07:24:14;;;;;;;21.97;14.00;;;4.70;99.90;;;;;;5089718;28;20194;-82
2024/02/27 07:26:40;;;;;;;19.43;13.67;;;4.70;99.90;;;;;;5089570;28;20351;-82
2024/02/27 07:29:07;;;;;;;20.83;14.13;;;4.70;99.90;;;;;;5090047;28;20643;-81
2024/02/27 07:31:33;;;;;;;21.50;14.40;;;4.80;99.90;;;;;;5090996;28;20556;-82
2024/02/27 07:33:59;;;;;;;19.17;14.03;;;4.70;99.90;;;;;;5089732;28;20194;-83
2024/02/27 07:36:25;;;;;;;22.10;14.70;;;4.90;99.90;;;;;;5087992;28;20183;-82
2024/02/27 07:38:51;;;;;;;17.13;12.53;;;4.80;99.90;;;;;;5089981;28;20164;-83
2024/02/27 07:41:18;;;;;;;19.03;14.87;;;4.70;99.90;;;;;;5089917;28;20174;-83
2024/02/27 07:43:43;;;;;;;19.13;12.40;;;4.80;99.90;;;;;;5090826;28;20191;-83
2024/02/27 07:46:13;;;;;;;22.10;14.27;;;4.70;99.90;;;;;;5090418;28;20174;-83
2024/02/27 07:48:40;;;;;;;20.13;13.87;;;4.70;99.90;;;;;;5091036;28;20220;-83
2024/02/27 07:51:05;;;;;;;19.73;14.63;;;4.80;99.90;;;;;;5094293;28;20168;-81
2024/02/27 07:53:31;;;;;;;18.97;13.63;;;4.80;99.90;;;;;;5094421;28;20186;-82
2024/02/27 07:55:57;;;;;;;21.47;12.83;;;4.70;99.90;;;;;;5094606;28;20172;-82
2024/02/27 07:58:22;;;;;;;21.83;15.10;;;4.70;99.90;;;;;;5107499;28;20175;-80
2024/02/27 08:00:49;;;;;;;23.97;15.77;;;4.60;99.90;;;;;;5114910;28;20539;-83
2024/02/27 08:03:14;;;;;;;20.07;14.70;;;4.70;99.90;;;;;;5113819;28;20666;-82
2024/02/27 08:05:40;;;;;;;19.83;13.17;;;4.60;99.90;;;;;;5114863;28;20159;-81
2024/02/27 08:08:06;;;;;;;20.23;15.00;;;4.70;99.90;;;;;;5114891;28;20191;-81
2024/02/27 08:10:31;;;;;;;22.03;15.43;;;4.70;99.90;;;;;;5114399;28;20571;-84
2024/02/27 08:12:57;;;;;;;20.87;15.13;;;4.70;99.90;;;;;;5114145;28;20189;-82
2024/02/27 08:15:23;;;;;;;24.00;16.77;;;4.70;99.90;;;;;;5114104;28;20175;-82
2024/02/27 08:17:49;;;;;;;23.73;16.10;;;4.90;99.90;;;;;;5114884;28;20525;-82
2024/02/27 08:20:14;;;;;;;21.57;15.13;;;4.70;99.90;;;;;;5114108;28;20177;-87
2024/02/27 08:22:40;;;;;;;23.07;15.30;;;4.70;99.90;;;;;;5113779;28;20198;-85
2024/02/27 08:25:07;;;;;;;23.47;16.40;;;4.70;99.90;;;;;;5088486;28;20259;-83
2024/02/27 08:27:34;;;;;;;26.13;17.10;;;4.70;99.90;;;;;;5073733;28;20176;-82
2024/02/27 08:30:00;;;;;;;26.23;17.63;;;4.60;99.90;;;;;;5074211;28;20310;-83
2024/02/27 08:32:25;;;;;;;20.17;14.30;;;4.60;99.90;;;;;;5074754;28;20230;-82
2024/02/27 08:34:51;;;;;;;23.37;16.40;;;4.70;99.90;;;;;;5074865;28;20175;-85
2024/02/27 08:37:17;;;;;;;23.63;16.73;;;4.60;99.90;;;;;;5075276;28;20523;-84
2024/02/27 08:39:43;;;;;;;20.67;15.57;;;4.80;99.90;;;;;;5072706;28;20176;-82
2024/02/27 08:42:08;;;;;;;21.27;15.67;;;4.70;99.90;;;;;;5073615;28;20215;-83
2024/02/27 08:44:34;;;;;;;23.50;17.63;;;4.70;99.90;;;;;;5074522;28;20632;-85
2024/02/27 08:47:02;;;;;;;21.63;16.33;;;4.70;99.90;;;;;;5072967;28;20263;-83
2024/02/27 08:49:28;;;;;;;24.67;18.17;;;4.70;99.90;;;;;;5073062;28;20278;-82
2024/02/27 08:51:53;;;;;;;24.83;17.60;;;4.80;99.90;;;;;;5073534;28;20176;-82
2024/02/27 08:54:19;;;;;;;24.90;18.00;;;4.80;99.90;;;;;;5073554;28;20183;-84
2024/02/27 08:56:45;;;;;;;20.30;14.47;;;5.00;99.90;;;;;;5072637;28;20164;-82
2024/02/27 08:59:10;;;;;;;21.13;15.00;;;4.80;99.90;;;;;;5111500;28;20205;-82
2024/02/27 09:01:36;;;;;;;22.27;15.93;;;4.70;99.90;;;;;;5114245;28;20246;-85
2024/02/27 09:04:02;;;;;;;23.67;16.63;;;4.70;99.90;;;;;;5114430;28;20163;-83
2024/02/27 09:06:27;;;;;;;22.27;15.70;;;4.70;99.90;;;;;;5113261;28;20642;-84
2024/02/27 09:08:53;;;;;;;22.27;15.60;;;4.80;99.90;;;;;;5113930;28;20670;-82
2024/02/27 09:11:19;;;;;;;22.03;15.40;;;4.70;99.90;;;;;;5113676;28;20175;-82
2024/02/27 09:13:44;;;;;;;22.13;15.27;;;4.80;99.90;;;;;;5113790;28;20205;-81
2024/02/27 09:16:11;;;;;;;25.73;19.07;;;4.80;99.90;;;;;;5113171;28;20163;-83
2024/02/27 09:18:39;;;;;;;21.23;16.60;;;4.90;99.90;;;;;;5113290;28;20706;-83
2024/02/27 09:21:05;;;;;;;21.67;15.70;;;4.80;99.90;;;;;;5113330;28;20243;-82
2024/02/27 09:23:31;;;;;;;23.07;16.53;;;4.70;99.90;;;;;;5112664;28;20636;-82
2024/02/27 09:25:57;;;;;;;23.27;17.73;;;4.70;99.90;;;;;;5113367;28;20209;-83
2024/02/27 09:28:22;;;;;;;24.17;16.33;;;4.70;99.90;;;;;;5114896;28;20530;-83
2024/02/27 09:30:48;;;;;;;25.00;15.07;;;4.90;99.90;;;;;;5113375;28;20661;-84
2024/02/27 09:33:14;;;;;;;23.67;17.27;;;4.80;99.90;;;;;;5112793;28;20186;-83
2024/02/27 09:35:41;;;;;;;29.43;18.00;;;4.70;99.90;;;;;;5113847;28;20167;-83
2024/02/27 09:38:07;;;;;;;26.60;17.87;;;4.80;99.90;;;;;;5113508;28;20174;-83
2024/02/27 09:40:33;;;;;;;23.87;17.10;;;4.90;99.90;;;;;;5113203;28;20201;-83
2024/02/27 09:43:01;;;;;;;22.23;16.63;;;4.90;99.90;;;;;;5113016;28;20713;-81
2024/02/27 09:45:27;;;;;;;25.77;18.77;;;5.00;99.90;;;;;;5112565;28;20171;-83
2024/02/27 09:47:54;;;;;;;23.87;17.40;;;5.10;99.90;;;;;;5114418;28;20690;-83
2024/02/27 09:50:20;;;;;;;22.87;16.57;;;5.00;99.90;;;;;;5112562;28;20635;-83
2024/02/27 09:52:49;;;;;;;23.43;17.17;;;5.30;99.90;;;;;;5111748;28;20171;-85
2024/02/27 09:55:19;;;;;;;24.27;17.83;;;5.10;99.90;;;;;;5113329;28;20537;-83
2024/02/27 09:57:47;;;;;;;27.20;17.37;;;5.20;99.90;;;;;;5106606;28;20235;-85
2024/02/27 10:00:19;;;;;;;26.47;18.33;;;5.20;99.90;;;;;;5091347;28;20202;-84
2024/02/27 10:02:50;;;;;;;24.37;18.20;;;5.30;99.90;;;;;;5092332;28;20273;-84
2024/02/27 10:05:20;;;;;;;24.70;18.60;;;5.30;99.90;;;;;;5092273;28;20312;-84
2024/02/27 10:07:48;;;;;;;23.33;17.33;;;5.40;99.90;;;;;;5091918;28;20192;-86
2024/02/27 10:10:14;;;;;;;22.93;15.93;;;5.50;99.90;;;;;;5091782;28;20176;-84
2024/02/27 10:12:40;;;;;;;21.43;15.60;;;5.60;99.90;;;;;;5092101;28;20179;-83
2024/02/27 10:15:06;;;;;;;23.63;17.27;;;5.60;99.90;;;;;;5091860;28;20175;-83
2024/02/27 10:17:35;;;;;;;24.83;16.40;;;5.50;99.90;;;;;;5091321;28;20539;-84
2024/02/27 10:20:04;;;;;;;20.30;16.30;;;5.50;99.90;;;;;;5092271;28;20659;-83
2024/02/27 10:22:31;;;;;;;25.80;17.13;;;5.60;99.90;;;;;;5091782;28;20203;-84
2024/02/27 10:25:11;;;;;;;23.10;16.93;;;5.60;99.90;;;;;;5091978;28;20183;-85
2024/02/27 10:27:37;;;;;;;22.80;16.90;;;5.60;99.90;;;;;;5090940;28;20289;-83
2024/02/27 10:30:08;;;;;;;20.10;16.33;;;5.80;99.90;;;;;;5091823;28;20395;-84
2024/02/27 10:32:34;;;;;;;22.43;15.70;;;5.90;99.90;;;;;;5089900;28;20186;-84
2024/02/27 10:35:04;;;;;;;22.03;16.77;;;6.00;99.90;;;;;;5081912;28;20176;-86
2024/02/27 10:37:35;;;;;;;21.97;15.87;;;6.30;99.90;;;;;;5071236;28;20266;-89
2024/02/27 10:40:02;;;;;;;21.43;15.43;;;6.20;99.90;;;;;;5072703;28;20192;-83
2024/02/27 10:42:28;;;;;;;19.57;14.57;;;6.40;99.90;;;;;;5071374;28;20590;-83
2024/02/27 10:44:57;;;;;;;17.27;14.90;;;6.20;99.90;;;;;;5070491;28;20172;-83
2024/02/27 10:47:26;;;;;;;21.80;14.47;;;6.40;99.90;;;;;;5071732;28;20173;-86
2024/02/27 10:49:55;;;;;;;18.20;11.93;;;6.50;99.90;;;;;;5071408;28;20176;-83
2024/02/27 10:52:26;;;;;;;17.27;13.47;;;6.60;99.90;;;;;;5070610;28;20176;-84
2024/02/27 10:54:53;;;;;;;17.10;13.43;;;6.70;99.90;;;;;;5071961;28;20255;-84
2024/02/27 10:57:19;;;;;;;18.10;14.60;;;7.00;99.90;;;;;;5078858;28;20171;-85
2024/02/27 10:59:45;;;;;;;18.23;14.23;;;7.00;99.90;;;;;;5112720;28;20187;-85
2024/02/27 11:02:16;;;;;;;15.30;13.23;;;7.20;99.90;;;;;;5112585;28;20199;-83
2024/02/27 11:04:43;;;;;;;17.90;13.00;;;7.30;98.40;;;;;;5112629;28;20177;-84
2024/02/27 11:07:12;;;;;;;15.87;12.30;;;7.20;96.30;;;;;;5111323;28;20171;-83
2024/02/27 11:09:38;;;;;;;15.27;12.27;;;7.20;96.00;;;;;;5111870;28;20178;-83
2024/02/27 11:12:06;;;;;;;17.50;13.00;;;7.30;52.40;;;;;;5111311;28;20178;-84
2024/02/27 11:14:36;;;;;;;15.90;12.10;;;7.40;53.10;;;;;;5111339;28;20178;-83
2024/02/27 11:17:13;;;;;;;18.10;13.33;;;7.50;32.00;;;;;;5111624;28;20171;-86
2024/02/27 11:19:51;;;;;;;16.03;12.80;;;7.50;36.40;;;;;;5111323;28;20207;-86
2024/02/27 11:22:19;;;;;;;13.93;10.37;;;7.60;37.90;;;;;;5111607;28;20302;-84
2024/02/27 11:24:46;;;;;;;14.43;11.30;;;7.70;23.10;;;;;;5111276;28;20171;-84
2024/02/27 11:27:19;;;;;;;15.13;11.07;;;7.80;19.20;;;;;;5110808;28;20162;-84
2024/02/27 11:29:47;;;;;;;13.73;11.57;;;7.90;10.70;;;;;;5108642;28;20223;-84
2024/02/27 11:32:13;;;;;;;14.40;11.50;;;8.00;10.00;;;;;;5081719;28;20184;-85
2024/02/27 11:34:42;;;;;;;15.43;12.43;;;8.00;9.30;;;;;;5070984;28;20199;-86
2024/02/27 11:37:09;;;;;;;13.23;10.27;;;8.20;13.80;;;;;;5071683;28;20655;-83
2024/02/27 11:39:35;;;;;;;13.20;10.20;;;8.20;10.00;;;;;;5070568;28;20172;-82
2024/02/27 11:42:04;;;;;;;13.47;10.57;;;8.20;2.90;;;;;;5072177;28;20632;-83
2024/02/27 11:44:30;;;;;;;11.83;8.83;;;8.40;1.00;;;;;;5071639;28;20267;-84
2024/02/27 11:46:55;;;;;;;12.53;8.90;;;8.40;1.00;;;;;;5079036;28;20247;-83
2024/02/27 11:49:39;;;;;;;11.80;9.23;;;8.40;1.00;;;;;;5076276;28;20559;-84
2024/02/27 11:52:06;;;;;;;13.00;10.20;;;8.40;1.00;;;;;;5058125;28;20467;-83
2024/02/27 11:54:35;;;;;;;12.17;9.47;;;8.60;1.00;;;;;;5086123;28;20188;-81
2024/02/27 11:57:05;;;;;;;11.40;9.47;;;8.70;1.00;;;;;;5090019;28;20565;-81
2024/02/27 11:59:30;;;;;;;10.67;7.73;;;8.70;1.00;;;;;;5086635;28;20712;-83
2024/02/27 12:02:06;;;;;;;10.57;8.03;;;8.70;1.00;;;;;;5087941;28;20205;-82
2024/02/27 12:04:31;;;;;;;10.50;8.90;;;8.70;1.00;;;;;;5087311;28;20191;-84
2024/02/27 12:06:57;;;;;;;12.20;9.43;;;8.80;1.00;;;;;;5087014;28;20244;-84
2024/02/27 12:09:24;;;;;;;12.23;9.20;;;9.00;1.00;;;;;;5087937;28;20208;-83
2024/02/27 12:11:50;;;;;;;10.63;8.73;;;9.10;1.00;;;;;;5087708;28;20650;-82
2024/02/27 12:14:17;;;;;;;11.17;8.87;;;9.30;1.00;;;;;;5088033;28;20164;-84
2024/02/27 12:16:43;;;;;;;10.10;8.63;;;9.30;1.00;;;;;;5090050;28;20201;-83
2024/02/27 12:19:09;;;;;;;10.73;8.53;;;9.20;1.00;;;;;;5086874;28;20483;-84
2024/02/27 12:21:34;;;;;;;11.47;8.67;;;9.20;1.00;;;;;;5087482;28;20191;-83
2024/02/27 12:24:18;;;;;;;13.27;8.50;;;9.20;1.00;;;;;;5089259;28;20256;-82
2024/02/27 12:26:46;;;;;;;9.83;8.40;;;9.30;1.00;;;;;;5088770;28;20662;-83
2024/02/27 12:29:16;;;;;;;10.03;6.93;;;9.30;1.00;;;;;;5086763;28;20250;-83
2024/02/27 12:31:42;;;;;;;9.33;6.97;;;9.40;1.00;;;;;;5087233;28;20195;-83
2024/02/27 12:34:07;;;;;;;9.77;7.10;;;9.50;1.00;;;;;;5086588;28;20257;-84
2024/02/27 12:36:34;;;;;;;13.23;6.93;;;9.40;1.00;;;;;;5081559;28;20254;-82
2024/02/27 12:39:00;;;;;;;9.23;7.77;;;9.50;1.00;;;;;;5090138;28;20179;-83
2024/02/27 12:41:27;;;;;;;9.17;7.23;;;9.50;1.00;;;;;;5090200;28;20183;-84